Time;durP1;ratioP1;P1;durP2;ratioP2;P2;SDS_P1;SDS_P2;PMS_P1;PMS_P2;Temp;Humidity;BMP_temperature;BMP_pressure;BME280_temperature;BME280_humidity;BME280_pressure;Samples;Min_cycle;Max_cycle;Signal;HPM_P1;HPM_P2
2021/08/29 00:02:21;;;;;;;14.02;4.40;;;18.40;99.60;;;;;;4978737;28;20614;-66
2021/08/29 00:04:46;;;;;;;10.38;4.30;;;18.40;99.50;;;;;;4980452;28;20192;-64
2021/08/29 00:07:12;;;;;;;13.23;4.30;;;18.40;99.50;;;;;;4984518;28;20298;-66
2021/08/29 00:09:38;;;;;;;11.38;4.03;;;18.30;99.40;;;;;;4965591;28;20298;-66
2021/08/29 00:12:04;;;;;;;11.65;3.80;;;18.30;99.30;;;;;;4975835;28;20190;-65
2021/08/29 00:14:30;;;;;;;8.73;4.07;;;18.20;99.20;;;;;;4968097;28;20236;-66
2021/08/29 00:16:56;;;;;;;13.25;3.75;;;18.20;99.10;;;;;;4980785;28;20603;-65
2021/08/29 00:19:21;;;;;;;13.82;3.80;;;18.30;99.00;;;;;;4979617;28;20187;-64
2021/08/29 00:21:47;;;;;;;13.13;4.13;;;18.20;98.90;;;;;;4984508;28;20279;-67
2021/08/29 00:24:12;;;;;;;10.10;3.80;;;18.20;98.90;;;;;;4978530;28;20216;-63
2021/08/29 00:26:38;;;;;;;10.70;4.05;;;18.20;98.90;;;;;;4978481;28;20184;-66
2021/08/29 00:29:04;;;;;;;10.02;3.75;;;18.20;98.90;;;;;;4966497;28;20290;-65
2021/08/29 00:31:30;;;;;;;9.18;3.80;;;18.20;98.80;;;;;;4975045;28;20580;-63
2021/08/29 00:33:56;;;;;;;11.77;4.20;;;18.20;98.70;;;;;;4965596;28;20193;-64
2021/08/29 00:36:22;;;;;;;8.95;3.60;;;18.10;98.70;;;;;;4962492;28;20289;-64
2021/08/29 00:38:47;;;;;;;11.98;3.95;;;18.20;98.60;;;;;;4979443;28;20185;-64
2021/08/29 00:41:13;;;;;;;14.73;3.90;;;18.10;98.60;;;;;;4980493;28;20220;-65
2021/08/29 00:43:39;;;;;;;11.82;3.70;;;18.10;98.50;;;;;;4959541;28;20197;-66
2021/08/29 00:46:06;;;;;;;11.75;4.22;;;18.10;98.40;;;;;;4975660;28;22181;-63
2021/08/29 00:48:32;;;;;;;10.88;3.50;;;18.10;98.30;;;;;;4965612;28;20204;-67
2021/08/29 00:50:58;;;;;;;11.65;4.10;;;18.10;98.20;;;;;;4965596;28;20601;-64
2021/08/29 00:53:24;;;;;;;10.52;4.30;;;18.10;98.10;;;;;;4960885;28;20224;-65
2021/08/29 00:55:51;;;;;;;8.88;4.25;;;18.10;97.90;;;;;;4961867;28;20340;-66
2021/08/29 00:58:25;;;;;;;9.07;3.53;;;18.10;97.80;;;;;;4967602;28;20582;-66
2021/08/29 01:00:52;;;;;;;9.70;4.22;;;18.10;97.70;;;;;;4968222;28;20176;-65
2021/08/29 01:03:26;;;;;;;15.10;3.95;;;18.10;97.70;;;;;;4970563;28;20216;-65
2021/08/29 01:05:58;;;;;;;10.23;3.60;;;18.00;97.50;;;;;;4971527;28;20599;-66
2021/08/29 01:08:39;;;;;;;8.45;3.58;;;18.00;97.50;;;;;;4971341;28;20634;-65
2021/08/29 01:11:18;;;;;;;12.40;3.88;;;18.00;97.50;;;;;;4966127;28;20185;-64
2021/08/29 01:13:46;;;;;;;8.88;4.30;;;18.00;97.40;;;;;;4966752;28;20224;-65
2021/08/29 01:16:16;;;;;;;13.07;4.10;;;18.00;97.40;;;;;;4965226;28;20256;-64
2021/08/29 01:18:54;;;;;;;10.52;3.97;;;18.00;97.40;;;;;;4967455;28;20193;-63
2021/08/29 01:21:28;;;;;;;8.52;3.65;;;17.90;97.40;;;;;;4968477;28;20190;-66
2021/08/29 01:23:59;;;;;;;9.18;3.80;;;17.90;97.40;;;;;;4965611;28;20182;-66
2021/08/29 01:26:31;;;;;;;7.00;3.42;;;17.90;97.40;;;;;;4984976;28;20180;-65
2021/08/29 01:29:03;;;;;;;11.75;4.13;;;17.90;97.40;;;;;;4944681;28;20609;-64
2021/08/29 01:31:34;;;;;;;9.48;4.22;;;17.80;97.40;;;;;;4970991;28;20941;-64
2021/08/29 01:34:03;;;;;;;11.32;4.18;;;17.80;97.40;;;;;;4982990;28;20255;-63
2021/08/29 01:36:32;;;;;;;11.00;4.18;;;17.80;97.50;;;;;;4986952;28;20256;-65
2021/08/29 01:39:02;;;;;;;15.02;4.47;;;17.70;97.50;;;;;;4971027;28;20181;-63
2021/08/29 01:41:30;;;;;;;8.30;3.58;;;17.70;97.60;;;;;;4962910;28;20205;-65
2021/08/29 01:43:57;;;;;;;8.68;4.35;;;17.70;97.70;;;;;;4965191;28;20174;-66
2021/08/29 01:46:24;;;;;;;9.93;4.15;;;17.70;97.70;;;;;;4965598;28;20199;-64
2021/08/29 01:48:59;;;;;;;11.02;4.53;;;17.70;97.70;;;;;;4985748;28;20239;-63
2021/08/29 01:51:25;;;;;;;8.25;3.97;;;17.70;97.70;;;;;;4966970;28;20255;-66
2021/08/29 01:53:54;;;;;;;11.75;4.10;;;17.70;97.70;;;;;;4964985;28;20298;-66
2021/08/29 01:56:24;;;;;;;12.05;4.18;;;17.80;97.70;;;;;;4967171;28;20212;-64
2021/08/29 01:58:59;;;;;;;13.18;3.92;;;17.80;97.70;;;;;;4964941;28;20189;-64
2021/08/29 02:01:32;;;;;;;8.32;4.28;;;17.80;97.70;;;;;;4968957;28;20213;-65
2021/08/29 02:04:02;;;;;;;10.57;3.67;;;17.80;97.70;;;;;;4962098;28;20182;-66
2021/08/29 02:06:32;;;;;;;10.07;4.15;;;17.80;97.80;;;;;;4966994;28;20190;-66
2021/08/29 02:09:05;;;;;;;6.90;3.80;;;17.80;97.70;;;;;;4970030;28;20940;-62
2021/08/29 02:11:42;;;;;;;8.93;3.67;;;17.80;97.80;;;;;;4962625;28;20189;-66
2021/08/29 02:14:14;;;;;;;7.25;3.45;;;17.80;97.70;;;;;;4963525;28;20226;-66
2021/08/29 02:16:43;;;;;;;10.88;3.97;;;17.80;97.70;;;;;;4962756;28;20192;-64
2021/08/29 02:19:13;;;;;;;9.27;3.58;;;17.80;97.70;;;;;;4963430;28;20197;-65
2021/08/29 02:21:41;;;;;;;11.63;3.45;;;17.80;97.70;;;;;;4963896;28;20178;-66
2021/08/29 02:24:08;;;;;;;9.93;4.13;;;17.80;97.70;;;;;;4961286;28;20186;-63
2021/08/29 02:26:34;;;;;;;12.35;3.83;;;17.80;97.70;;;;;;4966948;28;20186;-65
2021/08/29 02:29:10;;;;;;;7.45;3.40;;;17.80;97.70;;;;;;4965956;28;20562;-66
2021/08/29 02:31:37;;;;;;;9.00;3.85;;;17.80;97.80;;;;;;4962857;28;20309;-64
2021/08/29 02:34:03;;;;;;;10.90;3.45;;;17.80;97.80;;;;;;4974907;28;20274;-64
2021/08/29 02:36:30;;;;;;;9.98;3.60;;;17.80;97.80;;;;;;4965881;28;20209;-63
2021/08/29 02:39:00;;;;;;;9.85;3.45;;;17.80;97.80;;;;;;4966389;28;20186;-65
2021/08/29 02:41:26;;;;;;;7.13;2.97;;;17.80;97.90;;;;;;4961582;28;20739;-65
2021/08/29 02:43:56;;;;;;;13.13;3.30;;;17.80;97.90;;;;;;4966713;28;20182;-65
2021/08/29 02:46:24;;;;;;;13.05;3.75;;;17.80;97.90;;;;;;4963428;28;20191;-64
2021/08/29 02:48:50;;;;;;;8.07;3.20;;;17.80;98.30;;;;;;4963372;28;20194;-64
2021/08/29 02:51:17;;;;;;;12.90;3.10;;;17.80;98.00;;;;;;4962457;28;20577;-65
2021/08/29 02:53:46;;;;;;;12.05;3.63;;;17.80;98.00;;;;;;4962529;28;20189;-64
2021/08/29 02:56:13;;;;;;;9.82;3.10;;;17.80;98.00;;;;;;4966696;28;20198;-66
2021/08/29 02:58:40;;;;;;;12.35;3.40;;;17.80;98.10;;;;;;4965624;28;20285;-65
2021/08/29 03:01:16;;;;;;;15.60;3.75;;;17.80;98.10;;;;;;4958463;28;20268;-63
2021/08/29 03:04:08;;;;;;;9.82;3.20;;;17.80;98.20;;;;;;4962729;28;20187;-64
2021/08/29 03:06:37;;;;;;;10.10;3.45;;;17.80;98.20;;;;;;4965025;28;20182;-66
2021/08/29 03:09:04;;;;;;;14.15;3.10;;;17.80;98.30;;;;;;4963214;28;20197;-66
2021/08/29 03:11:33;;;;;;;6.70;2.38;;;17.70;98.30;;;;;;4959797;28;20194;-66
2021/08/29 03:14:00;;;;;;;15.00;2.90;;;17.80;98.40;;;;;;4974970;28;20247;-66
2021/08/29 03:16:26;;;;;;;10.18;2.85;;;17.70;98.40;;;;;;4977906;28;21275;-65
2021/08/29 03:18:53;;;;;;;9.95;3.30;;;17.80;98.50;;;;;;4979435;28;20189;-66
2021/08/29 03:21:46;;;;;;;14.80;3.10;;;17.80;98.50;;;;;;4978196;28;20544;-67
2021/08/29 03:24:12;;;;;;;10.63;2.92;;;17.70;98.60;;;;;;4967775;28;20276;-66
2021/08/29 03:26:39;;;;;;;14.68;3.70;;;17.80;98.60;;;;;;4965787;28;20193;-66
2021/08/29 03:29:36;;;;;;;8.27;3.10;;;17.80;98.70;;;;;;4974026;28;20284;-64
2021/08/29 03:32:03;;;;;;;11.48;3.15;;;17.80;98.70;;;;;;4949113;28;20223;-66
2021/08/29 03:34:30;;;;;;;11.80;3.10;;;17.70;98.70;;;;;;4984289;28;20196;-64
2021/08/29 03:36:58;;;;;;;12.02;3.25;;;17.70;98.80;;;;;;4964878;28;20268;-66
2021/08/29 03:39:32;;;;;;;12.88;2.72;;;17.70;98.80;;;;;;4978436;28;20185;-67
2021/08/29 03:41:59;;;;;;;9.02;3.17;;;17.80;98.90;;;;;;4959601;28;20181;-66
2021/08/29 03:44:28;;;;;;;11.80;2.97;;;17.70;98.90;;;;;;4959277;28;20654;-67
2021/08/29 03:46:54;;;;;;;13.95;3.22;;;17.70;99.00;;;;;;4966218;28;20192;-66
2021/08/29 03:49:38;;;;;;;12.05;3.03;;;17.70;99.10;;;;;;4963909;28;20184;-63
2021/08/29 03:52:06;;;;;;;15.23;2.95;;;17.70;99.10;;;;;;4980245;28;20185;-65
2021/08/29 03:55:06;;;;;;;8.20;2.63;;;17.70;99.20;;;;;;4931086;28;20233;-63
2021/08/29 03:57:33;;;;;;;11.32;3.42;;;17.70;99.20;;;;;;4964933;28;20185;-64
2021/08/29 03:59:59;;;;;;;9.80;2.60;;;17.80;99.20;;;;;;4961053;28;20181;-65
2021/08/29 04:02:24;;;;;;;16.58;3.58;;;17.70;99.20;;;;;;4965245;28;20274;-67
2021/08/29 04:04:50;;;;;;;13.00;3.35;;;17.70;99.20;;;;;;4960523;28;20276;-65
2021/08/29 04:07:18;;;;;;;12.43;3.08;;;17.70;99.20;;;;;;4961401;28;20183;-66
2021/08/29 04:10:03;;;;;;;11.05;2.65;;;17.70;99.20;;;;;;4962457;28;20205;-65
2021/08/29 04:12:31;;;;;;;18.20;3.25;;;17.70;99.20;;;;;;4963698;28;20190;-63
2021/08/29 04:15:18;;;;;;;11.00;3.13;;;17.70;99.20;;;;;;4980053;28;20560;-66
2021/08/29 04:17:46;;;;;;;9.88;3.00;;;17.70;99.20;;;;;;4964675;28;20189;-64
2021/08/29 04:20:14;;;;;;;12.07;3.25;;;17.70;99.20;;;;;;4965821;28;20185;-67
2021/08/29 04:22:40;;;;;;;15.00;3.20;;;17.70;99.10;;;;;;4975347;28;20181;-64
2021/08/29 04:25:07;;;;;;;9.57;2.85;;;17.70;99.10;;;;;;4974504;28;20194;-64
2021/08/29 04:27:33;;;;;;;8.05;2.75;;;17.70;99.10;;;;;;4969241;28;20222;-65
2021/08/29 04:29:59;;;;;;;11.77;2.88;;;17.70;99.10;;;;;;4981050;28;20553;-65
2021/08/29 04:32:29;;;;;;;12.57;2.97;;;17.70;99.10;;;;;;4966277;28;20189;-67
2021/08/29 04:34:55;;;;;;;11.23;2.92;;;17.70;99.00;;;;;;4963697;28;20201;-65
2021/08/29 04:37:28;;;;;;;12.75;3.08;;;17.70;99.00;;;;;;4967278;28;20633;-62
2021/08/29 04:40:03;;;;;;;14.45;3.45;;;17.70;98.90;;;;;;4981472;28;20648;-65
2021/08/29 04:42:35;;;;;;;14.02;3.20;;;17.70;98.90;;;;;;4969393;28;20193;-66
2021/08/29 04:45:01;;;;;;;13.88;2.80;;;17.70;98.90;;;;;;4965699;28;20289;-63
2021/08/29 04:47:27;;;;;;;13.38;3.20;;;17.70;98.80;;;;;;4982265;28;20274;-64
2021/08/29 04:49:57;;;;;;;15.40;3.22;;;17.70;98.90;;;;;;4969752;28;20185;-63
2021/08/29 04:52:24;;;;;;;9.23;2.97;;;17.70;98.80;;;;;;4964434;28;20203;-67
2021/08/29 04:54:53;;;;;;;15.45;2.70;;;17.70;98.80;;;;;;4951669;28;20206;-67
2021/08/29 04:57:19;;;;;;;17.13;3.80;;;17.70;98.90;;;;;;4965738;28;20520;-66
2021/08/29 04:59:46;;;;;;;13.63;2.78;;;17.70;98.80;;;;;;4967767;28;20725;-66
2021/08/29 05:02:12;;;;;;;9.93;2.70;;;17.70;98.80;;;;;;4964258;28;20297;-64
2021/08/29 05:04:37;;;;;;;9.73;2.70;;;17.70;98.80;;;;;;4964070;28;20196;-64
2021/08/29 05:07:04;;;;;;;13.70;3.00;;;17.70;98.70;;;;;;4962791;28;20222;-66
2021/08/29 05:09:32;;;;;;;16.60;3.20;;;17.70;98.80;;;;;;4968105;28;20277;-66
2021/08/29 05:11:57;;;;;;;15.63;3.03;;;17.70;98.80;;;;;;4964937;28;20288;-64
2021/08/29 05:14:23;;;;;;;12.65;3.05;;;17.70;98.80;;;;;;4961533;28;20226;-65
2021/08/29 05:16:49;;;;;;;17.30;3.30;;;17.70;98.90;;;;;;4984851;28;20550;-65
2021/08/29 05:19:17;;;;;;;18.05;3.60;;;17.70;99.00;;;;;;4967394;28;20204;-67
2021/08/29 05:21:44;;;;;;;12.45;2.90;;;17.70;99.00;;;;;;4966627;28;20710;-65
2021/08/29 05:24:26;;;;;;;11.43;2.88;;;17.70;99.00;;;;;;4963323;28;20723;-66
2021/08/29 05:26:53;;;;;;;10.55;2.53;;;17.70;99.00;;;;;;4963592;28;20193;-66
2021/08/29 05:29:21;;;;;;;13.32;2.97;;;17.80;98.90;;;;;;4967553;28;20177;-66
2021/08/29 05:31:47;;;;;;;10.27;2.63;;;17.80;98.90;;;;;;4968097;28;20560;-67
2021/08/29 05:34:19;;;;;;;12.43;3.85;;;17.70;98.80;;;;;;4965891;28;20191;-68
2021/08/29 05:36:45;;;;;;;13.20;3.55;;;17.70;98.80;;;;;;4964139;28;20220;-64
2021/08/29 05:39:14;;;;;;;10.20;2.55;;;17.70;98.80;;;;;;4969749;28;20236;-65
2021/08/29 05:41:40;;;;;;;13.68;3.05;;;17.70;98.80;;;;;;4965372;28;20181;-66
2021/08/29 05:44:24;;;;;;;14.50;2.70;;;17.70;98.80;;;;;;4978513;28;20283;-67
2021/08/29 05:46:50;;;;;;;12.70;2.70;;;17.80;98.80;;;;;;4969167;28;20537;-64
2021/08/29 05:49:17;;;;;;;13.18;3.17;;;17.70;98.80;;;;;;4968817;28;20181;-64
2021/08/29 05:51:43;;;;;;;16.25;3.13;;;17.80;98.80;;;;;;4976681;28;20255;-64
2021/08/29 05:54:10;;;;;;;11.40;2.80;;;17.80;98.80;;;;;;4960482;28;20218;-66
2021/08/29 05:56:35;;;;;;;10.35;3.03;;;17.80;98.80;;;;;;4965574;28;20251;-65
2021/08/29 05:59:02;;;;;;;11.27;2.88;;;17.80;98.80;;;;;;4964011;28;20195;-66
2021/08/29 06:01:29;;;;;;;19.05;3.92;;;17.80;98.80;;;;;;4961542;28;20194;-66
2021/08/29 06:03:55;;;;;;;13.05;3.20;;;17.90;98.80;;;;;;4981748;28;20236;-64
2021/08/29 06:06:39;;;;;;;14.65;2.90;;;17.90;98.80;;;;;;4976122;28;20211;-64
2021/08/29 06:09:05;;;;;;;14.27;2.80;;;17.90;98.70;;;;;;4966736;28;20197;-66
2021/08/29 06:11:33;;;;;;;16.95;3.30;;;17.90;98.70;;;;;;4959185;28;20268;-68
2021/08/29 06:13:59;;;;;;;12.00;2.83;;;17.90;98.70;;;;;;4963782;28;20231;-67
2021/08/29 06:16:26;;;;;;;12.05;2.85;;;18.00;98.70;;;;;;4961444;28;20202;-65
2021/08/29 06:18:52;;;;;;;17.80;3.50;;;18.00;98.60;;;;;;4956772;28;20220;-63
2021/08/29 06:21:19;;;;;;;12.43;3.13;;;18.00;98.60;;;;;;4984509;28;20177;-66
2021/08/29 06:23:46;;;;;;;14.00;2.83;;;18.00;98.60;;;;;;4965806;28;20547;-65
2021/08/29 06:26:37;;;;;;;11.38;2.70;;;18.10;98.60;;;;;;4959897;28;20247;-64
2021/08/29 06:29:21;;;;;;;14.45;3.03;;;18.10;98.60;;;;;;4983649;28;20189;-65
2021/08/29 06:32:10;;;;;;;12.40;3.03;;;18.10;98.50;;;;;;4955211;28;20205;-65
2021/08/29 06:34:51;;;;;;;9.48;3.10;;;18.10;98.50;;;;;;4967258;28;20286;-67
2021/08/29 06:37:26;;;;;;;10.25;2.78;;;18.10;98.50;;;;;;4963631;28;20181;-64
2021/08/29 06:39:52;;;;;;;11.05;2.88;;;18.20;98.50;;;;;;4967671;28;20227;-65
2021/08/29 06:42:17;;;;;;;11.23;2.70;;;18.20;98.50;;;;;;4957401;28;20189;-64
2021/08/29 06:44:48;;;;;;;13.10;3.55;;;18.30;98.50;;;;;;4967398;28;20539;-66
2021/08/29 06:47:42;;;;;;;9.68;2.58;;;18.30;98.60;;;;;;4978548;28;20212;-67
2021/08/29 06:50:26;;;;;;;10.55;2.88;;;18.30;98.60;;;;;;4980335;28;20631;-67
2021/08/29 06:53:10;;;;;;;13.27;3.00;;;18.30;98.50;;;;;;4966945;28;20319;-66
2021/08/29 06:55:54;;;;;;;16.10;3.22;;;18.40;98.50;;;;;;4964772;28;20228;-65
2021/08/29 06:58:42;;;;;;;11.05;2.35;;;18.40;98.40;;;;;;4981036;28;20279;-66
2021/08/29 07:01:08;;;;;;;10.00;3.00;;;18.40;98.40;;;;;;4970829;28;20272;-68
2021/08/29 07:03:34;;;;;;;13.88;3.10;;;18.50;98.30;;;;;;4964021;28;20224;-64
2021/08/29 07:05:59;;;;;;;10.30;3.60;;;18.40;98.30;;;;;;4963780;28;20676;-67
2021/08/29 07:08:54;;;;;;;12.57;3.03;;;18.50;98.30;;;;;;4967331;28;20279;-65
2021/08/29 07:11:19;;;;;;;11.68;3.10;;;18.50;98.40;;;;;;4961848;28;20189;-66
2021/08/29 07:14:04;;;;;;;17.88;2.97;;;18.50;98.30;;;;;;4981879;28;20241;-68
2021/08/29 07:16:29;;;;;;;12.95;2.80;;;18.50;98.30;;;;;;4960754;28;20216;-68
2021/08/29 07:18:55;;;;;;;18.63;3.47;;;18.50;98.30;;;;;;4965719;28;20177;-65
2021/08/29 07:21:24;;;;;;;19.15;3.08;;;18.50;98.40;;;;;;4981392;28;20189;-66
2021/08/29 07:23:56;;;;;;;13.35;2.83;;;18.60;98.40;;;;;;4982952;28;20745;-68
2021/08/29 07:26:41;;;;;;;15.45;3.30;;;18.60;98.40;;;;;;4981162;28;21018;-68
2021/08/29 07:29:26;;;;;;;15.32;3.13;;;18.60;98.40;;;;;;4981042;28;20748;-65
2021/08/29 07:32:10;;;;;;;14.30;3.20;;;18.70;98.40;;;;;;4976867;28;20195;-66
2021/08/29 07:34:37;;;;;;;13.63;3.30;;;18.70;98.30;;;;;;4961854;28;20201;-67
2021/08/29 07:37:29;;;;;;;14.38;2.95;;;18.70;98.10;;;;;;4969770;28;20259;-71
2021/08/29 07:39:54;;;;;;;10.80;3.50;;;18.80;98.00;;;;;;4966086;28;20185;-65
2021/08/29 07:42:21;;;;;;;15.77;3.75;;;18.80;97.90;;;;;;4966011;28;20232;-65
2021/08/29 07:44:47;;;;;;;18.20;3.45;;;18.90;97.80;;;;;;4965519;28;20272;-66
2021/08/29 07:47:18;;;;;;;14.95;3.00;;;18.90;97.70;;;;;;4976321;28;20189;-69
2021/08/29 07:49:43;;;;;;;18.48;3.20;;;18.90;97.50;;;;;;4965667;28;20232;-68
2021/08/29 07:52:11;;;;;;;15.80;2.90;;;19.00;97.40;;;;;;4962968;28;20220;-65
2021/08/29 07:54:55;;;;;;;16.42;3.50;;;19.00;97.20;;;;;;4971383;28;20236;-67
2021/08/29 07:57:29;;;;;;;15.65;3.20;;;19.00;97.10;;;;;;4982229;28;20537;-66
2021/08/29 08:00:04;;;;;;;17.20;3.13;;;19.10;97.00;;;;;;4964774;28;20217;-69
2021/08/29 08:02:39;;;;;;;11.60;2.90;;;19.10;97.00;;;;;;4980537;28;20227;-67
2021/08/29 08:05:38;;;;;;;14.68;3.45;;;19.10;96.90;;;;;;4936379;28;20278;-68
2021/08/29 08:08:40;;;;;;;13.93;3.15;;;19.10;96.90;;;;;;4977496;28;21799;-65
2021/08/29 08:11:29;;;;;;;14.15;3.13;;;19.10;96.90;;;;;;4976522;28;20195;-67
2021/08/29 08:13:54;;;;;;;11.68;3.28;;;19.10;96.90;;;;;;4965901;28;20225;-66
2021/08/29 08:16:20;;;;;;;8.60;3.10;;;19.10;96.90;;;;;;4980018;28;20696;-67
2021/08/29 08:18:45;;;;;;;12.57;3.00;;;19.10;96.90;;;;;;4962436;28;20244;-66
2021/08/29 08:21:11;;;;;;;14.65;3.42;;;19.10;96.80;;;;;;4974088;28;20193;-65
2021/08/29 08:23:46;;;;;;;21.08;3.60;;;19.10;96.80;;;;;;4980049;28;20196;-68
2021/08/29 08:26:27;;;;;;;18.00;3.17;;;19.10;96.80;;;;;;4981188;28;20193;-68
2021/08/29 08:29:12;;;;;;;13.25;3.15;;;19.10;96.70;;;;;;4967063;28;20261;-64
2021/08/29 08:31:56;;;;;;;18.15;3.15;;;19.10;96.70;;;;;;4975791;28;20207;-67
2021/08/29 08:34:57;;;;;;;12.77;3.20;;;19.10;96.50;;;;;;4975183;28;20219;-67
2021/08/29 08:37:45;;;;;;;16.40;3.00;;;19.10;96.50;;;;;;4977586;28;20320;-66
2021/08/29 08:40:21;;;;;;;16.75;3.30;;;19.10;96.60;;;;;;4961625;28;20186;-67
2021/08/29 08:42:49;;;;;;;15.57;2.95;;;19.10;96.50;;;;;;4977501;28;20272;-68
2021/08/29 08:45:38;;;;;;;13.80;3.55;;;19.10;96.50;;;;;;4962962;28;20837;-66
2021/08/29 08:48:36;;;;;;;12.73;2.90;;;19.10;96.50;;;;;;4946839;28;20911;-67
2021/08/29 08:51:29;;;;;;;13.70;3.13;;;19.10;96.40;;;;;;4979566;28;20207;-67
2021/08/29 08:54:16;;;;;;;14.70;3.35;;;19.10;96.30;;;;;;4981019;28;20294;-65
2021/08/29 08:57:00;;;;;;;11.13;2.50;;;19.20;96.30;;;;;;4978406;28;20689;-68
2021/08/29 08:59:44;;;;;;;12.75;2.80;;;19.20;96.20;;;;;;4964488;28;20182;-65
2021/08/29 09:02:36;;;;;;;18.25;3.15;;;19.20;96.10;;;;;;4956027;28;20253;-65
2021/08/29 09:05:22;;;;;;;14.52;3.15;;;19.20;96.00;;;;;;4977972;28;20243;-65
2021/08/29 09:07:48;;;;;;;14.98;3.53;;;19.30;95.90;;;;;;4978080;28;20237;-63
2021/08/29 09:10:13;;;;;;;14.50;3.00;;;19.30;95.80;;;;;;4965359;28;20193;-66
2021/08/29 09:12:59;;;;;;;17.60;3.03;;;19.40;95.80;;;;;;4975822;28;20292;-65
2021/08/29 09:15:26;;;;;;;20.42;2.90;;;19.40;95.70;;;;;;4962215;28;20213;-69
2021/08/29 09:17:52;;;;;;;17.10;3.17;;;19.40;95.60;;;;;;4968352;28;20264;-65
2021/08/29 09:20:26;;;;;;;16.80;3.17;;;19.40;95.60;;;;;;4985423;28;20292;-67
2021/08/29 09:23:00;;;;;;;16.65;3.10;;;19.40;95.60;;;;;;4965546;28;20599;-69
2021/08/29 09:25:47;;;;;;;12.43;2.40;;;19.50;95.70;;;;;;4985339;28;20193;-66
2021/08/29 09:28:29;;;;;;;17.63;2.97;;;19.50;95.60;;;;;;4978960;28;20170;-67
2021/08/29 09:30:59;;;;;;;15.45;3.10;;;19.50;95.50;;;;;;4960058;28;20604;-65
2021/08/29 09:33:31;;;;;;;12.15;2.75;;;19.50;95.50;;;;;;4967392;28;20328;-68
2021/08/29 09:35:57;;;;;;;14.88;2.80;;;19.60;95.50;;;;;;4969572;28;20681;-67
2021/08/29 09:38:42;;;;;;;19.77;3.28;;;19.60;95.50;;;;;;4975933;28;20197;-67
2021/08/29 09:41:24;;;;;;;15.98;3.10;;;19.60;95.50;;;;;;4959900;28;20197;-66
2021/08/29 09:44:19;;;;;;;14.45;3.10;;;19.70;95.50;;;;;;4946104;28;20677;-67
2021/08/29 09:47:01;;;;;;;17.33;2.80;;;19.60;95.40;;;;;;4967231;28;20638;-70
2021/08/29 09:49:49;;;;;;;10.27;2.60;;;19.70;95.40;;;;;;4983163;28;20232;-63
2021/08/29 09:52:27;;;;;;;11.48;2.78;;;19.70;95.30;;;;;;4966949;28;20719;-65
2021/08/29 09:55:12;;;;;;;14.40;3.40;;;19.60;95.20;;;;;;4977102;28;20712;-64
2021/08/29 09:57:56;;;;;;;20.38;3.95;;;19.60;95.20;;;;;;4981215;28;20680;-67
2021/08/29 10:01:11;;;;;;;24.80;3.33;;;19.60;95.20;;;;;;4960944;28;20237;-66
2021/08/29 10:03:44;;;;;;;22.40;3.72;;;19.50;95.20;;;;;;4967823;28;20181;-66
2021/08/29 10:06:16;;;;;;;20.55;3.30;;;19.50;95.40;;;;;;4970761;28;20232;-65
2021/08/29 10:08:51;;;;;;;18.17;3.20;;;19.50;95.40;;;;;;4965839;28;20189;-64
2021/08/29 10:11:31;;;;;;;17.88;3.10;;;19.40;95.40;;;;;;4963128;28;20185;-65
2021/08/29 10:13:59;;;;;;;12.88;3.20;;;19.40;95.60;;;;;;4965771;28;20228;-67
2021/08/29 10:16:27;;;;;;;19.77;4.03;;;19.40;95.70;;;;;;4966878;28;20210;-64
2021/08/29 10:19:19;;;;;;;14.93;3.30;;;19.30;95.90;;;;;;4982169;28;20211;-66
2021/08/29 10:22:08;;;;;;;15.32;3.28;;;19.30;96.10;;;;;;4936353;28;20244;-67
2021/08/29 10:24:35;;;;;;;13.68;3.38;;;19.30;96.50;;;;;;4966555;28;20185;-66
2021/08/29 10:27:19;;;;;;;21.00;3.40;;;19.30;96.20;;;;;;4967209;28;20247;-66
2021/08/29 10:30:05;;;;;;;15.88;2.90;;;19.30;96.20;;;;;;4976138;28;20706;-67
2021/08/29 10:32:39;;;;;;;12.68;2.85;;;19.30;96.30;;;;;;4979942;28;20201;-66
2021/08/29 10:35:23;;;;;;;19.48;3.50;;;19.30;96.20;;;;;;4984968;28;20232;-67
2021/08/29 10:37:55;;;;;;;16.23;3.38;;;19.30;96.30;;;;;;4963906;28;20556;-67
2021/08/29 10:40:41;;;;;;;22.33;3.53;;;19.30;96.30;;;;;;4980028;28;20572;-66
2021/08/29 10:43:19;;;;;;;15.32;3.50;;;19.40;96.30;;;;;;4980748;28;20249;-65
2021/08/29 10:46:03;;;;;;;27.77;4.38;;;19.40;96.30;;;;;;4981533;28;20204;-69
2021/08/29 10:49:01;;;;;;;19.95;3.70;;;19.40;96.30;;;;;;4950056;28;20215;-65
2021/08/29 10:51:34;;;;;;;17.15;3.13;;;19.40;96.40;;;;;;4962349;28;20244;-64
2021/08/29 10:54:00;;;;;;;22.33;3.90;;;19.40;96.50;;;;;;4964591;28;20193;-64
2021/08/29 10:56:33;;;;;;;19.10;4.20;;;19.40;96.60;;;;;;4966866;28;20217;-66
2021/08/29 10:59:07;;;;;;;16.55;3.55;;;19.40;96.80;;;;;;4966788;28;20185;-67
2021/08/29 11:01:36;;;;;;;19.48;3.85;;;19.40;96.80;;;;;;4967787;28;20301;-66
2021/08/29 11:04:25;;;;;;;19.45;3.95;;;19.40;96.80;;;;;;4935113;28;20202;-67
2021/08/29 11:06:57;;;;;;;16.60;3.65;;;19.40;96.90;;;;;;4966834;28;20185;-70
2021/08/29 11:09:32;;;;;;;24.63;3.92;;;19.40;97.00;;;;;;4966443;28;20684;-69
2021/08/29 11:11:59;;;;;;;14.30;4.32;;;19.40;97.20;;;;;;4945460;28;20609;-69
2021/08/29 11:14:38;;;;;;;18.23;4.13;;;19.40;97.40;;;;;;4966256;28;20367;-69
2021/08/29 11:17:11;;;;;;;16.98;3.80;;;19.40;97.70;;;;;;4981108;28;20189;-67
2021/08/29 11:20:02;;;;;;;20.70;3.83;;;19.30;97.90;;;;;;4964091;28;20260;-65
2021/08/29 11:22:48;;;;;;;24.77;4.72;;;19.30;98.20;;;;;;4980665;28;20197;-66
2021/08/29 11:25:36;;;;;;;18.02;3.72;;;19.30;98.40;;;;;;4980467;28;20564;-67
2021/08/29 11:28:29;;;;;;;18.48;3.83;;;19.30;98.70;;;;;;4965920;28;20210;-67
2021/08/29 11:31:04;;;;;;;19.90;4.28;;;19.20;99.00;;;;;;4982835;28;20717;-65
2021/08/29 11:33:39;;;;;;;27.00;4.32;;;19.20;99.20;;;;;;4963082;28;20615;-68
2021/08/29 11:36:29;;;;;;;19.30;4.40;;;19.20;99.40;;;;;;4965667;28;20209;-64
2021/08/29 11:38:58;;;;;;;21.60;4.07;;;19.20;99.60;;;;;;4980902;28;20197;-70
2021/08/29 11:41:24;;;;;;;19.58;4.03;;;19.20;99.80;;;;;;4979263;28;20188;-64
2021/08/29 11:43:51;;;;;;;28.70;5.18;;;19.20;99.90;;;;;;4965714;28;20189;-65
2021/08/29 11:46:23;;;;;;;18.13;4.13;;;19.20;99.90;;;;;;4969994;28;20239;-65
2021/08/29 11:49:05;;;;;;;21.02;3.63;;;19.20;99.90;;;;;;4963729;28;20551;-66
2021/08/29 11:51:39;;;;;;;27.42;5.32;;;19.20;99.90;;;;;;4953100;28;20185;-66
2021/08/29 11:54:11;;;;;;;24.33;4.57;;;19.20;99.90;;;;;;4960419;28;20194;-67
2021/08/29 11:56:41;;;;;;;19.83;4.50;;;19.20;99.90;;;;;;4978799;28;20235;-69
2021/08/29 11:59:08;;;;;;;23.65;4.20;;;19.20;99.90;;;;;;4966136;28;20186;-65
2021/08/29 12:01:35;;;;;;;19.38;4.18;;;19.30;99.90;;;;;;4946763;28;20181;-69
2021/08/29 12:04:03;;;;;;;13.73;3.60;;;19.30;99.90;;;;;;4965309;28;20709;-64
2021/08/29 12:06:44;;;;;;;21.75;4.13;;;19.30;99.90;;;;;;4963430;28;20192;-69
2021/08/29 12:09:41;;;;;;;20.67;5.20;;;19.30;99.90;;;;;;4980821;28;20317;-70
2021/08/29 12:12:26;;;;;;;16.95;4.22;;;19.30;99.90;;;;;;4981654;28;20232;-67
2021/08/29 12:15:10;;;;;;;18.85;4.35;;;19.30;99.90;;;;;;4979101;28;20226;-68
2021/08/29 12:17:57;;;;;;;26.73;5.03;;;19.30;99.90;;;;;;4977591;28;20196;-65
2021/08/29 12:20:28;;;;;;;17.00;3.92;;;19.40;99.90;;;;;;4966237;28;20182;-64
2021/08/29 12:23:15;;;;;;;24.40;4.68;;;19.40;99.90;;;;;;4975542;28;20193;-68
2021/08/29 12:25:42;;;;;;;18.20;4.72;;;19.40;99.90;;;;;;4964451;28;20216;-67
2021/08/29 12:28:13;;;;;;;21.50;4.53;;;19.40;99.90;;;;;;4966133;28;20230;-69
2021/08/29 12:30:39;;;;;;;21.70;4.82;;;19.40;99.90;;;;;;4962048;28;20190;-65
2021/08/29 12:33:14;;;;;;;24.98;4.68;;;19.40;99.90;;;;;;4979522;28;20181;-66
2021/08/29 12:35:41;;;;;;;21.85;4.57;;;19.40;99.90;;;;;;4965349;28;20211;-66
2021/08/29 12:38:23;;;;;;;17.52;3.80;;;19.40;99.90;;;;;;4978173;28;20273;-65
2021/08/29 12:40:51;;;;;;;13.27;4.40;;;19.30;99.90;;;;;;4962806;28;20169;-65
2021/08/29 12:43:18;;;;;;;12.77;3.80;;;19.30;99.90;;;;;;4965284;28;20224;-70
2021/08/29 12:45:49;;;;;;;18.48;4.00;;;19.30;99.90;;;;;;4966359;28;20224;-67
2021/08/29 12:48:14;;;;;;;17.27;4.18;;;19.30;99.90;;;;;;4947898;28;20229;-66
2021/08/29 12:50:49;;;;;;;11.15;3.92;;;19.20;99.90;;;;;;4979312;28;20189;-69
2021/08/29 12:53:18;;;;;;;11.65;3.65;;;19.20;99.90;;;;;;4979053;28;20193;-67
2021/08/29 12:55:52;;;;;;;11.88;3.38;;;19.20;99.90;;;;;;4986697;28;20264;-68
2021/08/29 12:58:22;;;;;;;18.25;4.20;;;19.30;99.90;;;;;;4985728;28;20232;-66
2021/08/29 13:00:53;;;;;;;;;;;19.30;99.90;;;;;;4979665;28;20233;-64
2021/08/29 13:03:19;;;;;;;;;;;19.40;99.90;;;;;;4986984;28;19965;-67
2021/08/29 13:05:46;;;;;;;;;;;19.40;99.90;;;;;;4982241;28;19954;-63
2021/08/29 13:08:12;;;;;;;;;;;19.40;99.90;;;;;;4986675;28;20486;-65
2021/08/29 13:10:39;;;;;;;11.65;4.30;;;19.50;99.90;;;;;;4987816;28;20167;-66
2021/08/29 13:13:13;;;;;;;14.18;4.40;;;19.50;99.90;;;;;;4981535;28;20220;-65